Time;durP1;ratioP1;P1;durP2;ratioP2;P2;SDS_P1;SDS_P2;PMS_P1;PMS_P2;Temp;Humidity;BMP_temperature;BMP_pressure;BME280_temperature;BME280_humidity;BME280_pressure;Samples;Min_cycle;Max_cycle;Signal;HPM_P1;HPM_P2
2021/03/21 00:00:00;;;;;;;19.10;2.30;;;28.70;17.70;;;;;;5036380;28;20097;-61
2021/03/21 00:02:26;;;;;;;29.38;2.95;;;28.60;18.00;;;;;;5032440;28;20085;-60
2021/03/21 00:04:54;;;;;;;21.60;3.05;;;28.60;17.90;;;;;;5033424;28;20273;-58
2021/03/21 00:07:20;;;;;;;29.25;2.90;;;28.50;18.70;;;;;;5030368;28;20157;-58
2021/03/21 00:11:23;;;;;;;16.95;2.78;;;28.40;25.80;;;;;;5131213;27;20168;-55
2021/03/21 00:13:50;;;;;;;19.30;2.30;;;28.70;15.00;;;;;;5110125;27;20072;-59
2021/03/21 00:16:24;;;;;;;14.30;2.30;;;28.60;16.40;;;;;;5130575;27;20108;-58
2021/03/21 00:18:51;;;;;;;15.27;1.95;;;28.60;16.10;;;;;;5131440;27;20513;-61
2021/03/21 00:21:18;;;;;;;12.63;2.75;;;28.60;14.30;;;;;;5124253;27;20147;-62
2021/03/21 00:23:45;;;;;;;17.98;3.42;;;28.50;15.60;;;;;;5129999;27;20536;-57
2021/03/21 00:26:13;;;;;;;17.90;2.47;;;28.60;16.20;;;;;;5111490;27;20079;-58
2021/03/21 00:28:41;;;;;;;12.82;2.30;;;28.50;15.80;;;;;;5124779;27;20115;-60
2021/03/21 00:31:11;;;;;;;23.95;3.83;;;28.30;16.60;;;;;;5110377;27;20617;-61
2021/03/21 00:33:39;;;;;;;11.40;2.28;;;28.20;17.20;;;;;;5111862;27;20071;-56
2021/03/21 00:36:09;;;;;;;10.73;2.00;;;28.30;17.10;;;;;;5130407;27;20499;-60
2021/03/21 00:38:43;;;;;;;2.90;1.30;;;28.10;16.00;;;;;;5132381;27;20482;-58
2021/03/21 00:41:12;;;;;;;8.45;1.75;;;28.20;15.30;;;;;;5131262;27;20431;-55
2021/03/21 00:43:39;;;;;;;7.57;2.83;;;28.10;16.50;;;;;;5130806;27;20075;-58
2021/03/21 00:46:06;;;;;;;9.38;3.40;;;28.20;17.40;;;;;;5129430;27;20148;-56
2021/03/21 00:48:37;;;;;;;4.50;1.50;;;28.00;17.40;;;;;;5129859;27;20083;-59
2021/03/21 00:51:04;;;;;;;11.15;2.65;;;27.80;17.30;;;;;;5129764;27;20187;-59
2021/03/21 00:53:31;;;;;;;11.40;1.65;;;27.70;17.10;;;;;;5130370;27;20490;-62
2021/03/21 00:55:58;;;;;;;10.32;1.80;;;27.50;17.20;;;;;;5112202;27;20170;-62
2021/03/21 00:58:25;;;;;;;10.32;2.20;;;27.50;17.60;;;;;;5130917;27;20526;-61
2021/03/21 01:00:54;;;;;;;9.82;1.83;;;27.50;18.00;;;;;;5111355;27;20068;-64
2021/03/21 01:03:22;;;;;;;9.45;1.60;;;27.40;18.40;;;;;;5108848;27;20075;-58
2021/03/21 01:06:15;;;;;;;11.02;1.50;;;27.30;18.90;;;;;;5129352;27;20147;-61
2021/03/21 01:08:42;;;;;;;7.10;1.50;;;27.10;18.80;;;;;;5123524;27;20533;-60
2021/03/21 01:11:15;;;;;;;5.70;1.83;;;27.00;18.70;;;;;;5124228;27;20160;-61
2021/03/21 01:13:43;;;;;;;10.35;1.70;;;26.80;18.30;;;;;;5127484;27;20080;-63
2021/03/21 01:16:25;;;;;;;6.80;1.75;;;26.80;18.50;;;;;;5131496;27;20102;-63
2021/03/21 01:18:53;;;;;;;18.00;2.05;;;26.80;18.90;;;;;;5129619;27;20411;-62
2021/03/21 01:21:20;;;;;;;5.03;1.80;;;26.70;18.90;;;;;;5125539;27;20079;-62
2021/03/21 01:23:47;;;;;;;6.32;1.65;;;26.50;19.30;;;;;;5099724;27;20072;-61
2021/03/21 01:26:20;;;;;;;5.88;1.60;;;26.40;19.80;;;;;;5115988;27;20085;-64
2021/03/21 01:28:47;;;;;;;8.57;1.88;;;26.20;20.30;;;;;;5116792;27;20076;-62
2021/03/21 01:31:17;;;;;;;5.43;1.67;;;26.00;20.50;;;;;;5118166;27;20659;-60
2021/03/21 01:33:43;;;;;;;8.00;1.95;;;25.90;20.60;;;;;;5121116;27;20080;-61
2021/03/21 01:36:13;;;;;;;7.57;1.95;;;25.70;20.40;;;;;;5119827;27;20428;-62
2021/03/21 01:38:40;;;;;;;3.83;1.60;;;25.50;19.30;;;;;;5115691;27;20064;-63
2021/03/21 01:41:13;;;;;;;8.10;1.92;;;25.40;18.10;;;;;;5121125;27;20076;-59
2021/03/21 01:43:41;;;;;;;10.45;2.05;;;25.40;18.70;;;;;;5098398;27;20192;-61
2021/03/21 01:46:13;;;;;;;6.32;1.55;;;25.30;19.40;;;;;;5116655;27;20516;-61
2021/03/21 01:48:43;;;;;;;6.25;2.13;;;25.20;20.00;;;;;;5119494;27;20075;-60
2021/03/21 01:51:26;;;;;;;10.30;1.98;;;25.10;20.00;;;;;;5122716;27;20536;-62
2021/03/21 01:53:56;;;;;;;6.65;1.95;;;25.00;20.00;;;;;;5119138;27;20516;-61
2021/03/21 01:56:25;;;;;;;4.40;1.73;;;24.90;19.70;;;;;;5118357;27;20159;-61
2021/03/21 01:59:05;;;;;;;4.88;1.85;;;24.80;20.30;;;;;;5116406;27;20504;-62
2021/03/21 02:01:32;;;;;;;10.60;2.30;;;24.60;21.20;;;;;;5116342;27;20515;-58
2021/03/21 02:03:59;;;;;;;9.02;2.10;;;24.50;21.50;;;;;;5118171;27;20192;-60
2021/03/21 02:06:39;;;;;;;5.78;1.65;;;24.40;21.70;;;;;;5096701;27;20106;-62
2021/03/21 02:09:18;;;;;;;6.63;1.98;;;24.30;21.90;;;;;;5114649;27;20112;-60
2021/03/21 02:12:01;;;;;;;9.25;2.67;;;24.20;22.20;;;;;;5117967;27;20079;-60
2021/03/21 02:14:46;;;;;;;5.60;2.10;;;24.10;21.90;;;;;;5116147;27;20067;-60
2021/03/21 02:17:16;;;;;;;6.05;2.22;;;24.00;21.30;;;;;;5119618;27;20086;-59
2021/03/21 02:19:55;;;;;;;8.20;2.25;;;23.90;20.50;;;;;;5119014;27;20092;-59
2021/03/21 02:22:35;;;;;;;8.50;2.45;;;23.80;23.10;;;;;;5117465;27;20080;-59
2021/03/21 02:25:28;;;;;;;12.63;2.53;;;23.60;23.10;;;;;;5115972;27;20075;-61
2021/03/21 02:28:15;;;;;;;10.43;2.55;;;23.50;23.00;;;;;;5111342;27;20078;-57
2021/03/21 02:30:45;;;;;;;9.15;2.85;;;23.30;23.10;;;;;;5111177;27;20083;-59
2021/03/21 02:33:23;;;;;;;7.10;2.03;;;23.20;23.00;;;;;;5113530;27;20164;-60
2021/03/21 02:36:08;;;;;;;17.02;3.35;;;23.10;23.40;;;;;;5115565;27;20104;-59
2021/03/21 02:39:05;;;;;;;10.73;2.63;;;23.10;23.00;;;;;;5102092;27;20072;-60
2021/03/21 02:41:37;;;;;;;4.68;2.00;;;22.90;22.60;;;;;;5117268;27;20072;-59
2021/03/21 02:44:14;;;;;;;9.65;2.50;;;22.90;22.00;;;;;;5094928;27;20076;-56
2021/03/21 02:47:02;;;;;;;9.23;2.00;;;22.90;21.60;;;;;;5116241;27;20079;-64
2021/03/21 02:49:41;;;;;;;11.63;2.30;;;22.90;21.40;;;;;;5093470;27;20597;-60
2021/03/21 02:52:18;;;;;;;10.55;3.10;;;22.90;21.50;;;;;;5115880;27;20116;-58
2021/03/21 02:54:53;;;;;;;8.57;2.10;;;22.80;21.90;;;;;;5115071;27;20086;-61
2021/03/21 02:57:26;;;;;;;14.23;3.28;;;22.80;21.70;;;;;;5096895;28;20511;-62
2021/03/21 02:59:55;;;;;;;11.88;2.25;;;22.70;21.40;;;;;;5113739;27;20092;-62
2021/03/21 03:02:51;;;;;;;20.20;2.75;;;22.70;22.00;;;;;;5111613;27;20080;-61
2021/03/21 03:05:53;;;;;;;16.92;2.90;;;22.50;22.30;;;;;;5098117;27;20137;-61
2021/03/21 03:08:32;;;;;;;10.38;2.97;;;22.50;21.90;;;;;;5053843;27;20439;-62
2021/03/21 03:11:05;;;;;;;11.18;2.40;;;22.50;21.50;;;;;;5111971;27;20133;-61
2021/03/21 03:13:40;;;;;;;8.80;2.63;;;22.40;20.70;;;;;;5113752;27;20115;-61
2021/03/21 03:16:14;;;;;;;11.38;2.70;;;22.40;20.30;;;;;;5096275;28;20064;-60
2021/03/21 03:18:49;;;;;;;10.55;2.63;;;22.30;20.60;;;;;;5113403;27;20100;-61
2021/03/21 03:21:36;;;;;;;10.40;2.90;;;22.30;20.80;;;;;;5114302;27;20103;-60
2021/03/21 03:24:03;;;;;;;8.13;2.20;;;22.30;21.20;;;;;;5097802;27;20087;-62
2021/03/21 03:26:47;;;;;;;9.00;2.45;;;22.10;22.00;;;;;;5112384;27;20072;-59
2021/03/21 03:29:31;;;;;;;12.13;2.58;;;22.00;22.20;;;;;;5114496;27;20072;-59
2021/03/21 03:32:00;;;;;;;6.72;2.55;;;21.90;23.20;;;;;;5112052;27;20171;-59
2021/03/21 03:34:29;;;;;;;14.55;2.58;;;21.80;23.80;;;;;;5119205;27;20067;-60
2021/03/21 03:36:56;;;;;;;9.55;2.90;;;21.70;24.40;;;;;;5095694;27;20158;-59
2021/03/21 03:39:24;;;;;;;7.32;2.67;;;21.60;23.90;;;;;;5115677;27;20223;-59
2021/03/21 03:41:57;;;;;;;16.38;6.28;;;21.60;23.40;;;;;;5115916;27;20064;-59
2021/03/21 03:44:35;;;;;;;17.17;7.05;;;21.60;23.20;;;;;;5115745;27;20068;-62
2021/03/21 03:47:16;;;;;;;8.10;3.72;;;21.60;22.20;;;;;;5114336;27;20078;-60
2021/03/21 03:50:00;;;;;;;17.48;5.28;;;21.50;23.30;;;;;;5111742;27;20486;-62
2021/03/21 03:52:57;;;;;;;23.30;4.28;;;21.40;24.20;;;;;;5128556;27;20076;-60
2021/03/21 03:55:30;;;;;;;13.77;4.25;;;21.40;24.10;;;;;;5116752;27;20064;-58
2021/03/21 03:58:20;;;;;;;13.00;5.15;;;21.30;24.50;;;;;;5118127;27;20111;-59
2021/03/21 04:01:02;;;;;;;19.55;3.75;;;21.20;24.40;;;;;;5114648;27;20092;-58
2021/03/21 04:03:56;;;;;;;16.15;3.25;;;21.20;24.60;;;;;;5114944;27;20076;-59
2021/03/21 04:06:54;;;;;;;9.50;3.15;;;21.20;22.70;;;;;;5100132;28;20075;-57
2021/03/21 04:09:34;;;;;;;;;;;21.30;21.40;;;;;;5114734;28;20099;-59
2021/03/21 04:12:13;;;;;;;17.17;2.88;;;21.30;20.80;;;;;;5115547;28;19956;-58
2021/03/21 04:15:07;;;;;;;14.35;3.53;;;21.30;21.10;;;;;;5116123;28;20184;-60
2021/03/21 04:17:45;;;;;;;14.38;2.63;;;21.30;21.90;;;;;;5115927;28;20154;-57
2021/03/21 04:20:30;;;;;;;12.70;2.70;;;21.10;23.30;;;;;;5115225;28;20099;-57
2021/03/21 04:23:20;;;;;;;12.05;2.80;;;21.00;24.00;;;;;;5116769;28;20520;-60
2021/03/21 04:25:56;;;;;;;11.85;2.60;;;20.90;24.30;;;;;;5116885;28;20071;-58
2021/03/21 04:29:02;;;;;;;12.70;3.25;;;20.90;24.00;;;;;;5114291;28;20064;-60
2021/03/21 04:31:29;;;;;;;12.18;3.15;;;20.90;23.80;;;;;;5092622;28;20083;-58
2021/03/21 04:34:05;;;;;;;9.23;2.42;;;20.80;23.80;;;;;;5117368;28;20079;-59
2021/03/21 04:36:36;;;;;;;9.75;2.70;;;20.70;24.00;;;;;;5116189;28;20155;-61
2021/03/21 04:39:11;;;;;;;13.07;3.75;;;20.70;24.20;;;;;;5114133;28;20129;-57
2021/03/21 04:42:14;;;;;;;12.05;3.03;;;20.70;24.50;;;;;;5115312;28;20166;-59
2021/03/21 04:44:54;;;;;;;12.27;3.25;;;20.60;24.40;;;;;;5111286;28;20084;-59
2021/03/21 04:47:41;;;;;;;11.25;3.05;;;20.50;24.00;;;;;;5118536;28;20071;-58
2021/03/21 04:50:08;;;;;;;14.53;3.57;;;20.40;23.90;;;;;;5100540;28;20087;-57
2021/03/21 04:53:11;;;;;;;13.00;2.97;;;20.40;23.60;;;;;;5115381;28;20397;-52
2021/03/21 04:55:46;;;;;;;10.20;2.20;;;20.50;22.70;;;;;;5111116;27;20075;-56
2021/03/21 04:58:30;;;;;;;11.68;2.10;;;20.50;22.70;;;;;;5120639;27;20079;-55
2021/03/21 05:01:03;;;;;;;12.80;2.95;;;20.50;22.90;;;;;;5116814;27;20092;-59
2021/03/21 05:03:40;;;;;;;10.35;2.47;;;20.40;23.20;;;;;;5117659;27;20119;-52
2021/03/21 05:06:10;;;;;;;;;;;20.40;23.10;;;;;;5117574;27;20071;-54
2021/03/21 05:08:44;;;;;;;12.52;3.17;;;20.30;23.20;;;;;;5117514;27;19957;-56
2021/03/21 05:11:12;;;;;;;9.23;2.22;;;20.30;23.00;;;;;;5120269;27;20154;-57
2021/03/21 05:13:51;;;;;;;16.10;2.70;;;20.30;22.70;;;;;;5120034;27;20079;-52
2021/03/21 05:16:25;;;;;;;13.48;3.22;;;20.30;22.70;;;;;;5114430;27;20143;-57
2021/03/21 05:19:12;;;;;;;10.65;3.00;;;20.30;22.40;;;;;;5114039;27;20163;-54
2021/03/21 05:21:54;;;;;;;8.93;2.92;;;20.30;22.20;;;;;;5117232;27;20084;-55
2021/03/21 05:24:30;;;;;;;23.25;3.20;;;20.30;22.60;;;;;;5117331;27;20078;-54
2021/03/21 05:27:22;;;;;;;10.70;2.80;;;20.20;23.40;;;;;;5119471;27;20125;-58
2021/03/21 05:30:03;;;;;;;11.10;2.67;;;20.10;23.90;;;;;;5116662;27;20084;-57
2021/03/21 05:32:29;;;;;;;11.40;2.80;;;20.00;24.00;;;;;;5116664;27;20418;-57
2021/03/21 05:34:58;;;;;;;13.07;2.80;;;19.90;23.80;;;;;;5102837;27;20121;-59
2021/03/21 05:37:51;;;;;;;13.70;3.33;;;19.80;23.60;;;;;;5117777;27;20068;-55
2021/03/21 05:40:55;;;;;;;13.38;3.13;;;19.80;23.30;;;;;;5118098;27;20099;-58
2021/03/21 05:43:43;;;;;;;13.52;3.40;;;19.80;22.80;;;;;;5116243;27;20118;-56
2021/03/21 05:46:39;;;;;;;13.77;3.85;;;19.80;21.90;;;;;;5115528;27;20417;-57
2021/03/21 05:49:50;;;;;;;41.55;13.43;;;19.90;21.10;;;;;;5117869;27;20075;-56
2021/03/21 05:52:28;;;;;;;24.25;6.05;;;19.80;21.50;;;;;;5038313;28;20192;-58
2021/03/21 05:55:27;;;;;;;16.05;5.85;;;19.80;21.30;;;;;;5101564;27;20263;-59
2021/03/21 05:58:13;;;;;;;17.70;5.82;;;19.80;20.80;;;;;;5120418;27;20447;-57
2021/03/21 06:01:17;;;;;;;20.35;5.03;;;19.80;21.00;;;;;;5114147;27;20470;-57
2021/03/21 06:04:11;;;;;;;13.15;4.10;;;19.80;21.10;;;;;;5118348;27;20076;-57
2021/03/21 06:07:09;;;;;;;15.77;4.28;;;19.80;21.30;;;;;;5118802;27;20068;-57
2021/03/21 06:09:36;;;;;;;20.45;3.92;;;19.80;20.90;;;;;;5079750;27;20112;-57
2021/03/21 06:12:05;;;;;;;;;;;19.80;20.30;;;;;;5114153;27;20072;-54
2021/03/21 06:14:40;;;;;;;23.38;7.90;;;19.80;20.00;;;;;;5114059;27;20492;-53
2021/03/21 06:17:30;;;;;;;15.25;4.65;;;19.90;19.60;;;;;;5117076;27;20076;-55
2021/03/21 06:20:15;;;;;;;15.45;3.85;;;19.90;20.00;;;;;;5109389;27;20632;-57
2021/03/21 06:23:15;;;;;;;21.13;5.47;;;19.80;20.30;;;;;;5101263;27;20087;-57
2021/03/21 06:26:05;;;;;;;46.30;12.82;;;19.80;20.70;;;;;;5117896;27;20068;-55
2021/03/21 06:28:50;;;;;;;16.15;2.97;;;19.70;21.40;;;;;;5116759;27;20080;-58
2021/03/21 06:31:38;;;;;;;17.50;4.70;;;19.70;21.80;;;;;;5115977;27;20076;-53
2021/03/21 06:34:17;;;;;;;15.40;3.10;;;19.60;22.40;;;;;;5113047;27;20504;-53
2021/03/21 06:36:52;;;;;;;15.55;3.88;;;19.50;23.00;;;;;;5114261;27;20083;-58
2021/03/21 06:39:24;;;;;;;16.02;3.53;;;19.40;23.10;;;;;;5116008;27;20070;-58
2021/03/21 06:41:59;;;;;;;22.38;3.55;;;19.30;22.80;;;;;;5117840;27;20133;-58
2021/03/21 06:44:31;;;;;;;15.43;3.53;;;19.40;22.90;;;;;;5113675;27;20151;-55
2021/03/21 06:47:31;;;;;;;11.50;3.22;;;19.30;23.00;;;;;;5117830;27;20159;-60
2021/03/21 06:50:15;;;;;;;16.20;3.20;;;19.20;23.40;;;;;;5113235;27;20068;-58
2021/03/21 06:52:58;;;;;;;19.60;3.35;;;19.20;23.40;;;;;;5117799;27;20127;-55
2021/03/21 06:55:49;;;;;;;13.20;3.50;;;19.10;23.50;;;;;;5118174;27;20075;-54
2021/03/21 06:58:43;;;;;;;18.58;3.30;;;19.10;23.40;;;;;;5113678;27;20083;-54
2021/03/21 07:01:24;;;;;;;14.70;3.30;;;19.10;23.60;;;;;;5114781;27;20100;-58
2021/03/21 07:04:18;;;;;;;13.48;2.95;;;19.10;23.60;;;;;;5116988;27;20542;-58
2021/03/21 07:07:12;;;;;;;11.20;2.63;;;19.00;23.50;;;;;;5114369;27;20080;-56
2021/03/21 07:10:08;;;;;;;11.45;3.25;;;19.00;24.00;;;;;;5112331;27;20132;-58
2021/03/21 07:13:28;;;;;;;9.73;2.42;;;18.90;24.20;;;;;;5114908;27;20125;-56
2021/03/21 07:16:19;;;;;;;15.90;3.28;;;18.80;24.20;;;;;;5115562;27;20071;-58
2021/03/21 07:19:07;;;;;;;15.18;3.13;;;18.80;24.10;;;;;;5118902;27;20083;-58
2021/03/21 07:21:51;;;;;;;;;;;18.80;24.30;;;;;;5115679;27;20236;-56
2021/03/21 07:24:52;;;;;;;13.10;3.05;;;18.70;24.50;;;;;;5114148;27;20430;-54
2021/03/21 07:27:18;;;;;;;15.35;3.40;;;18.70;24.50;;;;;;5115173;27;20099;-57
2021/03/21 07:29:50;;;;;;;;;;;18.70;24.50;;;;;;5116918;27;20084;-58
2021/03/21 07:32:33;;;;;;;16.67;3.10;;;18.60;24.60;;;;;;5110344;27;19960;-57
2021/03/21 07:35:21;;;;;;;11.48;2.67;;;18.60;23.60;;;;;;5116539;27;20134;-56
2021/03/21 07:38:26;;;;;;;9.70;2.65;;;18.70;23.30;;;;;;5113197;27;20087;-57
2021/03/21 07:41:09;;;;;;;11.88;2.58;;;18.60;23.50;;;;;;5110357;27;20104;-53
2021/03/21 07:44:05;;;;;;;14.70;2.88;;;18.60;23.30;;;;;;5115125;27;20574;-54
2021/03/21 07:46:43;;;;;;;14.23;2.95;;;18.60;23.40;;;;;;5117100;27;20091;-55
2021/03/21 07:49:27;;;;;;;13.50;2.83;;;18.60;23.20;;;;;;5111592;27;20436;-57
2021/03/21 07:52:15;;;;;;;18.17;3.20;;;18.60;23.10;;;;;;5111973;27;20113;-56
2021/03/21 07:55:23;;;;;;;15.60;3.17;;;18.50;22.90;;;;;;5110382;27;20075;-56
2021/03/21 07:58:20;;;;;;;17.13;3.10;;;18.50;23.10;;;;;;5029081;28;20081;-54
2021/03/21 08:00:47;;;;;;;19.35;2.92;;;18.50;22.70;;;;;;5028340;28;20102;-54
2021/03/21 08:03:34;;;;;;;24.52;2.95;;;18.50;22.40;;;;;;5086969;28;20092;-54
2021/03/21 08:06:03;;;;;;;17.33;2.72;;;18.50;22.40;;;;;;5110326;28;20455;-56
2021/03/21 08:08:35;;;;;;;20.27;3.22;;;18.40;22.60;;;;;;5111901;27;20072;-52
2021/03/21 08:11:06;;;;;;;16.48;3.30;;;18.40;23.60;;;;;;5112527;28;20104;-52
2021/03/21 08:13:35;;;;;;;17.27;2.92;;;18.30;23.50;;;;;;5116276;28;20068;-54
2021/03/21 08:16:02;;;;;;;15.32;2.92;;;18.20;24.20;;;;;;5093957;28;20137;-54
2021/03/21 08:18:35;;;;;;;20.00;2.72;;;18.20;24.20;;;;;;5097651;28;20494;-52
2021/03/21 08:21:15;;;;;;;18.83;2.70;;;18.10;24.50;;;;;;5115040;28;20096;-53
2021/03/21 08:23:45;;;;;;;13.57;2.63;;;18.00;24.80;;;;;;5113620;28;20076;-52
2021/03/21 08:26:14;;;;;;;19.52;3.10;;;18.00;24.90;;;;;;5113733;28;20123;-55
2021/03/21 08:28:59;;;;;;;16.55;2.60;;;17.90;25.30;;;;;;5113705;28;20118;-52
2021/03/21 08:31:47;;;;;;;9.68;3.08;;;17.80;24.90;;;;;;5112805;27;20118;-53
2021/03/21 08:34:46;;;;;;;17.60;3.15;;;17.80;24.90;;;;;;5116562;27;20082;-52
2021/03/21 08:37:29;;;;;;;19.73;3.30;;;17.80;24.40;;;;;;5113612;27;20490;-55
2021/03/21 08:40:01;;;;;;;17.17;2.70;;;17.70;24.10;;;;;;5117064;27;20511;-56
2021/03/21 08:42:29;;;;;;;12.93;3.00;;;17.70;24.00;;;;;;5114297;27;20629;-55
2021/03/21 08:45:27;;;;;;;13.10;2.47;;;17.70;23.90;;;;;;5117758;27;20102;-55
2021/03/21 08:48:05;;;;;;;16.27;2.72;;;17.80;24.00;;;;;;5104574;27;20559;-55
2021/03/21 08:50:46;;;;;;;13.73;2.70;;;17.70;24.50;;;;;;5118116;27;20091;-56
2021/03/21 08:53:30;;;;;;;14.00;2.72;;;17.50;26.20;;;;;;5116046;27;20081;-56
2021/03/21 08:56:39;;;;;;;13.30;2.60;;;17.40;27.00;;;;;;5112178;27;20060;-53
2021/03/21 08:59:21;;;;;;;14.88;2.88;;;17.30;27.40;;;;;;5086319;27;20084;-55
2021/03/21 09:02:11;;;;;;;14.50;2.67;;;17.20;28.00;;;;;;5114186;27;20080;-56
2021/03/21 09:04:59;;;;;;;10.57;2.70;;;17.00;28.50;;;;;;5113725;27;20100;-58
2021/03/21 09:07:29;;;;;;;14.52;2.75;;;16.90;28.40;;;;;;5120303;27;20079;-53
2021/03/21 09:10:11;;;;;;;15.35;2.75;;;16.90;28.60;;;;;;5115594;27;20107;-54
2021/03/21 09:12:59;;;;;;;16.55;3.05;;;16.80;28.80;;;;;;5117725;27;20103;-56
2021/03/21 09:15:31;;;;;;;19.40;3.47;;;16.80;28.80;;;;;;5109058;27;20088;-54
2021/03/21 09:18:16;;;;;;;11.23;2.72;;;16.70;29.30;;;;;;5118925;27;20547;-64
2021/03/21 09:20:52;;;;;;;14.20;2.67;;;16.60;30.10;;;;;;5119105;27;20594;-55
2021/03/21 09:23:37;;;;;;;10.30;2.47;;;16.40;30.90;;;;;;5118484;27;20095;-52
2021/03/21 09:26:20;;;;;;;12.68;2.70;;;16.30;31.40;;;;;;5117157;27;20078;-56
2021/03/21 09:28:56;;;;;;;12.07;2.58;;;16.20;32.00;;;;;;5114316;27;20156;-53
2021/03/21 09:31:24;;;;;;;18.52;2.90;;;16.10;32.20;;;;;;5114552;27;20076;-55
2021/03/21 09:34:02;;;;;;;11.90;2.90;;;16.00;31.60;;;;;;5117409;27;20077;-52
2021/03/21 09:36:42;;;;;;;18.48;2.78;;;16.00;30.60;;;;;;5114392;27;20431;-56
2021/03/21 09:39:11;;;;;;;14.68;3.00;;;15.90;30.20;;;;;;5110825;27;20068;-54
2021/03/21 09:41:38;;;;;;;12.20;3.03;;;15.90;29.60;;;;;;5116916;27;20099;-56
2021/03/21 09:44:25;;;;;;;16.88;2.63;;;15.90;29.40;;;;;;5116302;27;20529;-57
2021/03/21 09:47:14;;;;;;;12.23;2.63;;;15.90;29.00;;;;;;5117214;27;20436;-58
2021/03/21 09:49:41;;;;;;;16.38;3.45;;;15.90;28.40;;;;;;5113474;27;20084;-56
2021/03/21 09:52:25;;;;;;;12.88;3.22;;;15.90;27.90;;;;;;5114439;27;20067;-57
2021/03/21 09:55:20;;;;;;;13.98;2.78;;;15.80;27.60;;;;;;5113059;27;20158;-56
2021/03/21 09:58:14;;;;;;;11.93;2.50;;;15.80;27.10;;;;;;5116231;27;20075;-58
2021/03/21 10:00:46;;;;;;;12.40;2.50;;;15.70;26.70;;;;;;5113785;27;20087;-58
2021/03/21 10:03:25;;;;;;;12.38;2.85;;;15.70;26.60;;;;;;5118229;27;20532;-58
2021/03/21 10:06:08;;;;;;;16.80;2.85;;;15.70;26.00;;;;;;5113772;27;20090;-56
2021/03/21 10:08:37;;;;;;;11.50;2.70;;;15.70;25.80;;;;;;5116515;27;20064;-53
2021/03/21 10:11:08;;;;;;;21.98;3.03;;;15.70;25.50;;;;;;5111199;27;20112;-52
2021/03/21 10:13:44;;;;;;;14.30;2.67;;;15.70;25.30;;;;;;5112500;27;20100;-58
2021/03/21 10:16:26;;;;;;;11.70;2.60;;;15.70;25.30;;;;;;5117333;27;20093;-56
2021/03/21 10:18:56;;;;;;;14.85;3.10;;;15.70;25.00;;;;;;5112897;27;20072;-57
2021/03/21 10:21:25;;;;;;;11.55;2.55;;;15.70;24.80;;;;;;5114615;27;20563;-58
2021/03/21 10:23:53;;;;;;;16.67;3.15;;;15.70;24.70;;;;;;5114470;27;20081;-58
2021/03/21 10:26:22;;;;;;;10.73;2.67;;;15.70;24.40;;;;;;5115865;27;20080;-56
2021/03/21 10:28:50;;;;;;;16.58;3.58;;;15.70;23.90;;;;;;5110240;27;20103;-56
2021/03/21 10:31:23;;;;;;;9.60;2.60;;;15.70;23.50;;;;;;5112515;27;20082;-54
2021/03/21 10:34:02;;;;;;;11.75;2.42;;;15.80;23.00;;;;;;5097924;27;20072;-58
2021/03/21 10:36:40;;;;;;;11.63;2.80;;;15.90;22.50;;;;;;5112856;27;20067;-55
2021/03/21 10:39:32;;;;;;;17.20;3.05;;;15.90;22.10;;;;;;5115658;27;20081;-53
2021/03/21 10:42:15;;;;;;;14.43;2.65;;;16.00;22.00;;;;;;5092584;28;21675;-53
2021/03/21 10:44:46;;;;;;;12.23;2.97;;;16.00;21.90;;;;;;5110339;27;20075;-55
2021/03/21 10:47:25;;;;;;;10.98;2.50;;;16.00;22.20;;;;;;5114399;27;20067;-57
2021/03/21 10:49:57;;;;;;;15.63;2.70;;;16.10;22.50;;;;;;5111590;27;20084;-56
2021/03/21 10:52:32;;;;;;;16.38;2.45;;;16.10;22.70;;;;;;5116410;27;20072;-56
2021/03/21 10:55:16;;;;;;;10.02;2.45;;;16.00;22.90;;;;;;5111001;27;20082;-53
2021/03/21 10:57:45;;;;;;;13.50;2.85;;;16.00;22.90;;;;;;5113143;27;20084;-55
2021/03/21 11:00:14;;;;;;;11.07;2.60;;;16.00;22.80;;;;;;5115708;27;20104;-58
2021/03/21 11:02:49;;;;;;;10.23;2.85;;;16.00;22.50;;;;;;5113327;27;20088;-55
2021/03/21 11:05:32;;;;;;;16.67;2.85;;;16.10;22.30;;;;;;5114805;27;20079;-55
2021/03/21 11:08:14;;;;;;;10.98;2.42;;;16.10;22.00;;;;;;5111092;27;20443;-56
2021/03/21 11:10:43;;;;;;;10.38;3.13;;;16.20;21.90;;;;;;5113068;27;20463;-55
2021/03/21 11:13:13;;;;;;;18.40;3.22;;;16.20;22.00;;;;;;5117178;27;20068;-54
2021/03/21 11:15:44;;;;;;;17.90;2.95;;;16.20;22.10;;;;;;5112243;27;20132;-55
2021/03/21 11:18:23;;;;;;;17.77;3.13;;;16.10;22.40;;;;;;5112874;27;20140;-57
2021/03/21 11:21:18;;;;;;;10.95;2.53;;;16.10;22.80;;;;;;5096332;28;20103;-58
2021/03/21 11:23:53;;;;;;;8.27;2.67;;;16.00;23.20;;;;;;5114969;27;20072;-57
2021/03/21 11:26:26;;;;;;;12.93;3.50;;;16.00;23.50;;;;;;5111427;27;20072;-55
2021/03/21 11:29:23;;;;;;;12.35;2.35;;;15.90;23.50;;;;;;5095135;28;20069;-53
2021/03/21 11:31:59;;;;;;;10.73;2.72;;;15.90;23.60;;;;;;5105995;27;20108;-57
2021/03/21 11:34:29;;;;;;;15.45;2.78;;;15.80;23.70;;;;;;5111635;27;20082;-53
2021/03/21 11:37:20;;;;;;;16.23;2.70;;;15.80;23.70;;;;;;5111069;27;20414;-52
2021/03/21 11:39:58;;;;;;;10.38;3.00;;;15.70;23.60;;;;;;5111817;27;20096;-56
2021/03/21 11:42:38;;;;;;;9.95;2.30;;;15.70;23.70;;;;;;5117768;27;20080;-55
2021/03/21 11:45:22;;;;;;;14.00;2.63;;;15.70;23.60;;;;;;5110033;28;20083;-52
2021/03/21 11:48:10;;;;;;;14.50;2.72;;;15.70;23.70;;;;;;5107486;27;20699;-55
2021/03/21 11:50:40;;;;;;;12.02;2.78;;;15.60;23.70;;;;;;5113372;27;20079;-54
2021/03/21 11:53:15;;;;;;;9.82;2.30;;;15.60;23.80;;;;;;5113604;27;20076;-54
2021/03/21 11:55:43;;;;;;;8.77;2.65;;;15.50;23.90;;;;;;5115666;27;20079;-54
2021/03/21 11:58:22;;;;;;;15.18;3.08;;;15.50;23.90;;;;;;5112413;27;20076;-54
2021/03/21 12:01:04;;;;;;;15.05;3.25;;;15.50;24.00;;;;;;5110265;27;20458;-57
2021/03/21 12:03:54;;;;;;;12.55;2.70;;;15.40;24.30;;;;;;5112208;28;20068;-54
2021/03/21 12:06:41;;;;;;;13.60;3.83;;;15.40;24.20;;;;;;5116755;27;20076;-55
2021/03/21 12:09:26;;;;;;;13.15;2.90;;;15.40;24.30;;;;;;5110842;27;20492;-56
2021/03/21 12:11:53;;;;;;;8.57;2.40;;;15.40;24.40;;;;;;5110569;28;20075;-54
2021/03/21 12:14:32;;;;;;;14.98;2.60;;;15.30;24.40;;;;;;5113835;28;20076;-52
2021/03/21 12:17:00;;;;;;;8.48;2.50;;;15.30;24.30;;;;;;5113231;28;20095;-55
2021/03/21 12:19:30;;;;;;;11.50;2.92;;;15.30;24.30;;;;;;5110432;28;20076;-53
2021/03/21 12:22:19;;;;;;;10.70;2.90;;;15.30;24.20;;;;;;5108542;28;20079;-54
2021/03/21 12:24:53;;;;;;;13.85;3.03;;;15.30;24.10;;;;;;5109051;28;20413;-55
2021/03/21 12:27:29;;;;;;;11.95;2.80;;;15.30;24.00;;;;;;5111558;28;20082;-55
2021/03/21 12:30:30;;;;;;;8.50;2.33;;;15.30;23.90;;;;;;5112426;28;20079;-53
2021/03/21 12:33:13;;;;;;;12.70;2.95;;;15.30;24.00;;;;;;5082277;28;20088;-54
2021/03/21 12:35:42;;;;;;;15.70;3.10;;;15.30;24.40;;;;;;5111958;28;20072;-54
2021/03/21 12:38:25;;;;;;;9.65;2.95;;;15.30;23.80;;;;;;5106436;28;20068;-54
2021/03/21 12:40:52;;;;;;;11.32;2.72;;;15.30;24.00;;;;;;5113743;28;20114;-53
2021/03/21 12:43:32;;;;;;;14.88;3.35;;;15.30;24.00;;;;;;5111025;28;20080;-52
2021/03/21 12:46:15;;;;;;;12.25;3.35;;;15.20;24.30;;;;;;5110422;28;20160;-52
2021/03/21 12:48:55;;;;;;;14.98;2.92;;;15.20;24.50;;;;;;5111326;28;20080;-54
2021/03/21 12:51:39;;;;;;;15.77;3.00;;;15.10;24.80;;;;;;5113857;28;20072;-51
2021/03/21 12:54:06;;;;;;;12.45;2.30;;;15.00;25.10;;;;;;5115539;28;20084;-53
2021/03/21 12:56:32;;;;;;;8.65;2.22;;;14.90;25.40;;;;;;5107327;28;20073;-53
2021/03/21 12:58:59;;;;;;;;;;;14.90;25.60;;;;;;5112002;28;20069;-51
2021/03/21 13:01:25;;;;;;;14.32;2.97;;;14.90;26.10;;;;;;5116323;28;19987;-52
2021/03/21 13:03:52;;;;;;;16.15;2.83;;;14.90;26.20;;;;;;5114242;28;20303;-57
2021/03/21 13:06:18;;;;;;;8.88;2.35;;;14.80;26.40;;;;;;5115733;28;20073;-53
2021/03/21 13:08:44;;;;;;;;;;;14.80;26.20;;;;;;5109785;28;20080;-52
2021/03/21 13:11:11;;;;;;;17.20;3.22;;;14.70;25.90;;;;;;5108787;28;19984;-52
2021/03/21 13:13:40;;;;;;;13.85;3.45;;;14.70;25.80;;;;;;5110319;28;20099;-53
2021/03/21 13:16:07;;;;;;;15.90;3.30;;;14.80;26.00;;;;;;5112171;28;20167;-53
2021/03/21 13:18:33;;;;;;;11.13;2.70;;;14.70;25.60;;;;;;5119436;27;20134;-52
2021/03/21 13:21:00;;;;;;;;;;;14.70;25.50;;;;;;5114441;27;20096;-54
2021/03/21 13:23:27;;;;;;;11.50;2.75;;;14.70;25.60;;;;;;5116473;27;19964;-53
2021/03/21 13:25:54;;;;;;;15.63;2.83;;;14.70;25.70;;;;;;5116930;27;20095;-54
2021/03/21 13:28:21;;;;;;;12.82;2.38;;;14.60;25.70;;;;;;5116075;27;20091;-52
2021/03/21 13:30:48;;;;;;;;;;;14.70;25.80;;;;;;5112580;28;20159;-52
2021/03/21 13:33:22;;;;;;;10.65;2.67;;;14.60;25.90;;;;;;5116963;27;19988;-54
2021/03/21 13:35:52;;;;;;;13.98;2.58;;;14.60;26.10;;;;;;5114539;27;20080;-55
2021/03/21 13:38:19;;;;;;;10.55;2.72;;;14.70;26.30;;;;;;5119335;27;20490;-56